CheckWX is a tool to help pilots better visualize weather data.  It is not intended as a substitute for an official pre-flight weather briefing.

20:36:05 UTC

KLWC METAR
Lawrence Municipal Airport
Lawrence, Kansas, USA
Current

44 mins ago

KLWC 161952Z AUTO VRB04KT 10SM CLR 33/21 A2988 RMK AO2 SLP108 T03330206
Observed
Jul-16 @ 19:52 UTC
Wind
  • Variable at 4 KTS
Visibility
10 SM
Flight Rules
VFR
Cloud Levels
  • Clear skies
Temperature
33°C / 91°F
Dewpoint
21°C / 70°F
Heat Index
36°C / 96°F
Humidity
49%
Altimeter
29.88" Hg
Pressure
1011.82 hPa
Previous

2 hours ago

KLWC 161852Z AUTO 00000KT 10SM CLR 32/21 A2990 RMK AO2 SLP117 T03220211
Observed
Jul-16 @ 18:52 UTC
Visibility
10 SM
Flight Rules
VFR
Cloud Levels
  • Clear skies
Temperature
32°C / 90°F
Dewpoint
21°C / 70°F
Heat Index
36°C / 96°F
Humidity
52%
Altimeter
29.9" Hg
Pressure
1012.52 hPa
Previous

3 hours ago

KLWC 161752Z AUTO 20004KT 10SM CLR 31/21 A2992 RMK AO2 SLP124 T03060206 10306 20194 56017
Observed
Jul-16 @ 17:52 UTC
Wind
  • 200° at 4 KTS
Visibility
10 SM
Flight Rules
VFR
Cloud Levels
  • Clear skies
Temperature
31°C / 88°F
Dewpoint
21°C / 70°F
Heat Index
34°C / 93°F
Humidity
55%
Altimeter
29.92" Hg
Pressure
1013.22 hPa